createdAt,value
2018-06-17T00:01:24.866Z,11.03
2018-06-17T00:03:53.019Z,12.60
2018-06-17T00:06:21.187Z,11.07
2018-06-17T00:08:49.310Z,12.00
2018-06-17T00:11:17.472Z,13.60
2018-06-17T00:13:45.599Z,11.50
2018-06-17T00:16:14.235Z,11.50
2018-06-17T00:18:42.339Z,14.27
2018-06-17T00:21:10.478Z,11.57
2018-06-17T00:23:38.696Z,12.67
2018-06-17T00:26:07.106Z,11.03
2018-06-17T00:28:35.323Z,13.10
2018-06-17T00:31:03.563Z,12.10
2018-06-17T00:33:31.708Z,10.67
2018-06-17T00:35:59.951Z,11.87
2018-06-17T00:38:28.296Z,10.73
2018-06-17T00:40:56.484Z,11.60
2018-06-17T00:43:24.727Z,12.47
2018-06-17T00:45:52.943Z,16.10
2018-06-17T00:48:21.260Z,14.10
2018-06-17T00:50:49.459Z,11.43
2018-06-17T00:53:17.786Z,12.47
2018-06-17T00:55:45.985Z,14.93
2018-06-17T00:58:14.501Z,17.90
2018-06-17T01:00:42.508Z,13.10
2018-06-17T01:03:10.728Z,13.20
2018-06-17T01:05:38.958Z,14.23
2018-06-17T01:08:07.223Z,13.13
2018-06-17T01:10:35.356Z,15.53
2018-06-17T01:13:03.712Z,17.30
2018-06-17T01:15:31.919Z,12.27
2018-06-17T01:18:00.124Z,17.70
2018-06-17T01:20:28.332Z,13.50
2018-06-17T01:22:56.510Z,15.10
2018-06-17T01:25:24.740Z,13.50
2018-06-17T01:27:53.022Z,14.77
2018-06-17T01:30:21.232Z,11.90
2018-06-17T01:32:49.468Z,13.80
2018-06-17T01:35:17.656Z,13.10
2018-06-17T01:37:45.847Z,14.37
2018-06-17T01:40:14.010Z,14.03
2018-06-17T01:42:42.162Z,14.27
2018-06-17T01:45:10.303Z,14.77
2018-06-17T01:47:38.549Z,15.47
2018-06-17T01:50:07.367Z,23.73
2018-06-17T01:52:35.537Z,15.67
2018-06-17T01:55:03.779Z,16.03
2018-06-17T01:57:31.993Z,16.53
2018-06-17T02:00:00.166Z,20.50
2018-06-17T02:02:28.364Z,13.93
2018-06-17T02:05:01.833Z,15.60
2018-06-17T02:07:35.451Z,17.13
2018-06-17T02:10:09.072Z,15.67
2018-06-17T02:12:37.286Z,16.10
2018-06-17T02:15:05.735Z,15.23
2018-06-17T02:17:33.864Z,17.63
2018-06-17T02:20:02.033Z,15.30
2018-06-17T02:22:30.197Z,15.50
2018-06-17T02:24:58.459Z,18.10
2018-06-17T02:27:26.777Z,15.57
2018-06-17T02:29:55.064Z,15.80
2018-06-17T02:32:23.243Z,15.00
2018-06-17T02:34:51.549Z,15.97
2018-06-17T02:37:19.673Z,15.50
2018-06-17T02:39:47.837Z,14.53
2018-06-17T02:42:16.056Z,15.90
2018-06-17T02:44:44.213Z,16.10
2018-06-17T02:47:17.880Z,17.10
2018-06-17T02:49:47.994Z,15.60
2018-06-17T02:52:21.674Z,16.70
2018-06-17T02:54:49.846Z,16.57
2018-06-17T02:57:19.309Z,16.57
2018-06-17T02:59:47.797Z,16.93
2018-06-17T03:02:16.204Z,16.10
2018-06-17T03:04:44.445Z,21.40
2018-06-17T03:07:12.698Z,15.63
2018-06-17T03:09:40.963Z,16.87
2018-06-17T03:12:09.200Z,17.30
2018-06-17T03:14:37.362Z,27.90
2018-06-17T03:17:05.578Z,15.37
2018-06-17T03:19:33.800Z,18.20
2018-06-17T03:22:01.960Z,18.77
2018-06-17T03:24:36.178Z,15.60
2018-06-17T03:27:09.992Z,17.70
2018-06-17T03:29:43.749Z,16.27
2018-06-17T03:32:17.278Z,16.20
2018-06-17T03:34:47.744Z,19.27
2018-06-17T03:37:15.921Z,17.87
2018-06-17T03:39:44.058Z,16.20
2018-06-17T03:42:12.269Z,19.03
2018-06-17T03:44:40.428Z,16.63
2018-06-17T03:47:08.642Z,17.30
2018-06-17T03:49:36.878Z,15.90
2018-06-17T03:52:05.269Z,15.37
2018-06-17T03:54:33.505Z,18.07
2018-06-17T03:57:01.644Z,17.90
2018-06-17T03:59:29.775Z,17.10
2018-06-17T04:01:58.138Z,18.67
2018-06-17T04:04:26.447Z,21.60
2018-06-17T04:06:54.602Z,19.03
2018-06-17T04:09:22.665Z,18.00
2018-06-17T04:11:50.807Z,23.17
2018-06-17T04:14:19.067Z,19.17
2018-06-17T04:16:47.247Z,19.80
2018-06-17T04:19:16.029Z,18.43
2018-06-17T04:21:44.203Z,18.57
2018-06-17T04:24:12.436Z,20.57
2018-06-17T04:26:40.580Z,21.83
2018-06-17T04:29:08.748Z,23.10
2018-06-17T04:31:36.834Z,20.73
2018-06-17T04:34:05.327Z,25.50
2018-06-17T04:36:33.655Z,20.23
2018-06-17T04:39:01.833Z,21.10
2018-06-17T04:41:29.999Z,18.23
2018-06-17T04:43:58.161Z,19.43
2018-06-17T04:46:26.369Z,19.30
2018-06-17T04:48:54.580Z,19.13
2018-06-17T04:51:22.985Z,20.23
2018-06-17T04:53:51.168Z,20.53
2018-06-17T04:56:19.451Z,20.23
2018-06-17T04:58:47.620Z,20.37
2018-06-17T05:01:15.881Z,20.43
2018-06-17T05:03:44.013Z,19.73
2018-06-17T05:06:12.149Z,20.63
2018-06-17T05:08:40.262Z,19.30
2018-06-17T05:11:08.410Z,19.53
2018-06-17T05:13:36.670Z,21.37
2018-06-17T05:16:04.999Z,20.17
2018-06-17T05:18:33.874Z,21.80
2018-06-17T05:21:02.071Z,19.50
2018-06-17T05:23:30.329Z,28.10
2018-06-17T05:25:58.575Z,23.40
2018-06-17T05:28:26.784Z,21.33
2018-06-17T05:30:54.896Z,19.00
2018-06-17T05:33:23.695Z,22.53
2018-06-17T05:35:51.664Z,18.13
2018-06-17T05:38:19.928Z,19.17
2018-06-17T05:40:48.104Z,17.00
2018-06-17T05:43:16.334Z,21.47
2018-06-17T05:45:44.532Z,20.13
2018-06-17T05:48:12.731Z,14.70
2018-06-17T05:50:40.988Z,15.30
2018-06-17T05:53:09.130Z,20.90
2018-06-17T05:55:37.517Z,14.47
2018-06-17T05:58:05.663Z,15.97
2018-06-17T06:00:33.843Z,14.73
2018-06-17T06:03:02.032Z,13.70
2018-06-17T06:05:30.300Z,15.37
2018-06-17T06:07:58.611Z,17.57
2018-06-17T06:10:26.810Z,13.67
2018-06-17T06:12:55.102Z,10.53
2018-06-17T06:15:23.346Z,11.13
2018-06-17T06:17:51.582Z,13.00
2018-06-17T06:20:19.826Z,12.00
2018-06-17T06:22:48.000Z,14.60
2018-06-17T06:25:16.541Z,13.33
2018-06-17T06:27:44.746Z,14.23
2018-06-17T06:30:12.936Z,14.60
2018-06-17T06:32:41.199Z,12.80
2018-06-17T06:35:09.488Z,15.00
2018-06-17T06:37:38.839Z,16.20
2018-06-17T06:40:07.007Z,12.00
2018-06-17T06:42:35.199Z,11.90
2018-06-17T06:45:03.398Z,11.13
2018-06-17T06:47:31.727Z,12.03
2018-06-17T06:49:59.884Z,15.00
2018-06-17T06:52:28.152Z,15.10
2018-06-17T06:54:56.267Z,15.23
2018-06-17T06:57:24.476Z,11.33
2018-06-17T06:59:52.825Z,15.87
2018-06-17T07:02:32.549Z,10.70
2018-06-17T07:05:12.303Z,14.87
2018-06-17T07:07:52.131Z,17.90
2018-06-17T07:10:24.443Z,19.70
2018-06-17T07:12:52.740Z,10.20
2018-06-17T07:17:36.065Z,29.93
2018-06-17T07:20:04.275Z,10.70
2018-06-17T07:22:32.612Z,11.30
2018-06-17T07:25:00.832Z,11.93
2018-06-17T07:27:40.409Z,16.33
2018-06-17T07:30:09.075Z,15.33
2018-06-17T07:32:37.274Z,13.83
2018-06-17T07:35:05.561Z,9.93
2018-06-17T07:37:33.815Z,13.53
2018-06-17T07:41:05.435Z,12.00
2018-06-17T07:43:33.769Z,10.17
2018-06-17T07:46:01.954Z,10.10
2018-06-17T07:49:42.902Z,9.50
2018-06-17T07:52:23.417Z,11.20
2018-06-17T07:54:51.726Z,13.23
2018-06-17T07:57:21.374Z,12.20
2018-06-17T07:59:49.754Z,10.00
2018-06-17T08:02:18.195Z,10.97
2018-06-17T08:04:46.442Z,10.37
2018-06-17T08:07:14.616Z,12.63
2018-06-17T08:09:42.874Z,16.10
2018-06-17T08:12:11.713Z,12.17
2018-06-17T08:14:40.254Z,8.90
2018-06-17T08:17:08.612Z,10.00
2018-06-17T08:19:36.888Z,11.30
2018-06-17T08:22:05.292Z,10.53
2018-06-17T08:24:34.086Z,10.30
2018-06-17T08:27:02.509Z,8.03
2018-06-17T08:29:30.930Z,10.47
2018-06-17T08:31:59.113Z,7.87
2018-06-17T08:34:27.352Z,11.90
2018-06-17T08:36:55.488Z,9.80
2018-06-17T08:39:24.639Z,12.37
2018-06-17T08:41:52.852Z,9.47
2018-06-17T08:44:21.429Z,11.00
2018-06-17T08:46:50.101Z,10.20
2018-06-17T08:49:18.967Z,9.93
2018-06-17T08:51:47.168Z,9.73
2018-06-17T08:54:15.358Z,8.93
2018-06-17T08:56:43.572Z,13.40
2018-06-17T08:59:11.733Z,9.37
2018-06-17T09:01:40.067Z,13.10
2018-06-17T09:04:08.478Z,10.53
2018-06-17T09:06:36.691Z,9.73
2018-06-17T09:09:08.099Z,12.03
2018-06-17T09:11:36.644Z,9.43
2018-06-17T09:14:04.851Z,7.83
2018-06-17T09:16:33.057Z,8.43
2018-06-17T09:19:01.209Z,8.30
2018-06-17T09:21:29.365Z,8.27
2018-06-17T09:23:57.644Z,7.63
2018-06-17T09:26:25.914Z,5.40
2018-06-17T09:28:54.192Z,7.77
2018-06-17T09:31:22.338Z,5.50
2018-06-17T09:33:50.520Z,9.10
2018-06-17T09:36:18.705Z,7.57
2018-06-17T09:38:46.885Z,7.80
2018-06-17T09:41:15.101Z,9.43
2018-06-17T09:43:43.305Z,8.57
2018-06-17T09:46:11.457Z,6.83
2018-06-17T09:48:39.585Z,5.30
2018-06-17T09:51:08.056Z,10.20
2018-06-17T09:53:36.410Z,6.57
2018-06-17T09:56:04.609Z,8.07
2018-06-17T09:58:32.919Z,8.63
2018-06-17T10:01:01.250Z,10.60
2018-06-17T10:03:29.476Z,9.13
2018-06-17T10:05:57.668Z,7.40
2018-06-17T10:08:26.468Z,8.07
2018-06-17T10:11:09.473Z,7.43
2018-06-17T10:13:39.031Z,4.97
2018-06-17T10:16:07.689Z,4.63
2018-06-17T10:18:36.148Z,7.10
2018-06-17T10:21:07.857Z,7.80
2018-06-17T10:23:36.088Z,9.07
2018-06-17T10:26:04.816Z,5.30
2018-06-17T10:28:33.806Z,10.53
2018-06-17T10:31:04.283Z,8.40
2018-06-17T10:33:32.830Z,8.40
2018-06-17T10:36:01.072Z,6.33
2018-06-17T10:38:29.314Z,6.67
2018-06-17T10:40:57.527Z,7.03
2018-06-17T10:43:27.565Z,7.17
2018-06-17T10:45:56.025Z,6.50
2018-06-17T10:48:24.200Z,5.63
2018-06-17T10:50:52.739Z,5.00
2018-06-17T10:53:20.888Z,5.03
2018-06-17T10:55:49.113Z,4.93
2018-06-17T10:58:17.210Z,4.57
2018-06-17T11:00:45.353Z,5.53
2018-06-17T11:03:13.551Z,6.30
2018-06-17T11:05:41.929Z,6.77
2018-06-17T11:08:09.934Z,4.43
2018-06-17T11:10:38.079Z,6.40
2018-06-17T11:13:06.549Z,11.17
2018-06-17T11:15:34.777Z,7.80
2018-06-17T11:18:03.316Z,6.97
2018-06-17T11:20:31.501Z,9.30
2018-06-17T11:22:59.731Z,5.17
2018-06-17T11:25:27.889Z,6.67
2018-06-17T11:27:56.091Z,6.33
2018-06-17T11:30:24.273Z,7.07
2018-06-17T11:32:52.497Z,10.40
2018-06-17T11:35:21.732Z,6.13
2018-06-17T11:37:49.895Z,7.83
2018-06-17T11:40:18.115Z,7.20
2018-06-17T11:42:46.260Z,5.30
2018-06-17T11:45:14.459Z,10.10
2018-06-17T11:47:42.733Z,11.87
2018-06-17T11:50:10.924Z,10.27
2018-06-17T11:52:39.178Z,7.87
2018-06-17T11:55:07.486Z,18.73
2018-06-17T11:57:35.760Z,7.77
2018-06-17T12:00:03.805Z,9.30
2018-06-17T12:02:32.357Z,8.17
2018-06-17T12:05:00.476Z,8.73
2018-06-17T12:07:28.699Z,10.13
2018-06-17T12:09:57.064Z,8.30
2018-06-17T12:12:25.222Z,6.73
2018-06-17T12:14:53.527Z,6.30
2018-06-17T12:17:21.688Z,10.13
2018-06-17T12:19:49.894Z,9.83
2018-06-17T12:22:18.234Z,9.10
2018-06-17T12:24:46.478Z,12.90
2018-06-17T12:27:14.748Z,8.27
2018-06-17T12:29:42.942Z,7.90
2018-06-17T12:32:11.207Z,9.40
2018-06-17T12:34:39.382Z,9.57
2018-06-17T12:37:07.626Z,8.03
2018-06-17T12:39:36.300Z,10.37
2018-06-17T12:42:04.595Z,13.50
2018-06-17T12:44:32.847Z,9.80
2018-06-17T12:47:01.029Z,10.07
2018-06-17T12:49:29.296Z,10.90
2018-06-17T12:51:57.392Z,12.40
2018-06-17T12:54:25.552Z,11.07
2018-06-17T12:56:54.017Z,12.63
2018-06-17T12:59:22.353Z,13.90
2018-06-17T13:01:50.423Z,9.37
2018-06-17T13:04:18.648Z,10.53
2018-06-17T13:06:46.834Z,7.47
2018-06-17T13:09:14.963Z,8.83
2018-06-17T13:11:43.117Z,6.90
2018-06-17T13:14:11.274Z,7.80
2018-06-17T13:16:39.504Z,10.97
2018-06-17T13:19:07.643Z,9.27
2018-06-17T13:21:36.039Z,9.40
2018-06-17T13:24:04.201Z,6.73
2018-06-17T13:26:32.718Z,10.30
2018-06-17T13:29:00.885Z,9.17
2018-06-17T13:31:29.815Z,9.43
2018-06-17T13:33:58.200Z,8.23
2018-06-17T13:36:26.348Z,7.80
2018-06-17T13:38:54.556Z,8.60
2018-06-17T13:41:22.523Z,11.07
2018-06-17T13:43:50.523Z,6.17
2018-06-17T13:46:18.496Z,10.20
2018-06-17T13:48:46.468Z,5.93
2018-06-17T13:51:14.638Z,8.40
2018-06-17T13:53:42.779Z,10.10
2018-06-17T13:56:11.001Z,7.30
2018-06-17T13:58:39.241Z,7.00
2018-06-17T14:01:07.558Z,8.43
2018-06-17T14:03:35.817Z,10.70
2018-06-17T14:06:04.867Z,5.90
2018-06-17T14:08:33.068Z,8.43
2018-06-17T14:11:01.210Z,6.57
2018-06-17T14:13:29.388Z,7.60
2018-06-17T14:15:57.718Z,6.60
2018-06-17T14:18:26.188Z,8.40
2018-06-17T14:20:54.465Z,13.40
2018-06-17T14:23:22.638Z,6.67
2018-06-17T14:25:50.971Z,7.30
2018-06-17T14:28:19.157Z,7.47
2018-06-17T14:30:47.304Z,7.77
2018-06-17T14:33:15.451Z,8.63
2018-06-17T14:35:43.600Z,7.43
2018-06-17T14:38:11.828Z,6.93
2018-06-17T14:40:45.568Z,19.20
2018-06-17T14:43:19.006Z,12.80
2018-06-17T14:45:52.687Z,7.73
2018-06-17T14:48:26.576Z,10.53
2018-06-17T14:50:59.962Z,4.60
2018-06-17T14:53:28.109Z,11.03
2018-06-17T14:55:56.239Z,7.40
2018-06-17T14:58:24.409Z,8.63
2018-06-17T15:00:52.558Z,9.57
2018-06-17T15:03:20.723Z,5.20
2018-06-17T15:05:48.932Z,12.30
2018-06-17T15:08:17.154Z,7.90
2018-06-17T15:10:45.380Z,4.27
2018-06-17T15:13:13.793Z,5.80
2018-06-17T15:15:41.939Z,8.10
2018-06-17T15:18:10.155Z,10.40
2018-06-17T15:20:38.305Z,2.50
2018-06-17T15:23:06.522Z,2.80
2018-06-17T15:25:34.932Z,3.00
2018-06-17T15:28:03.324Z,3.17
2018-06-17T15:30:31.760Z,6.83
2018-06-17T15:33:05.554Z,6.07
2018-06-17T15:35:39.501Z,3.97
2018-06-17T15:38:13.310Z,3.43
2018-06-17T15:40:47.007Z,2.53
2018-06-17T15:43:15.190Z,2.13
2018-06-17T15:45:43.346Z,4.23
2018-06-17T15:48:11.521Z,5.80
2018-06-17T15:50:39.739Z,2.73
2018-06-17T15:53:08.793Z,5.47
2018-06-17T15:55:37.052Z,2.20
2018-06-17T15:58:06.113Z,6.17
2018-06-17T16:00:34.338Z,6.53
2018-06-17T16:03:02.960Z,2.47
2018-06-17T16:05:31.375Z,1.63
2018-06-17T16:07:59.544Z,5.77
2018-06-17T16:10:27.722Z,10.33
2018-06-17T16:13:01.801Z,3.77
2018-06-17T16:15:35.569Z,3.20
2018-06-17T16:18:09.322Z,4.03
2018-06-17T16:20:43.075Z,3.97
2018-06-17T16:23:11.348Z,4.50
2018-06-17T16:25:40.065Z,2.73
2018-06-17T16:28:08.389Z,2.40
2018-06-17T16:30:36.676Z,5.27
2018-06-17T16:33:05.000Z,4.20
2018-06-17T16:35:33.375Z,3.17
2018-06-17T16:38:01.693Z,2.07
2018-06-17T16:40:29.883Z,2.27
2018-06-17T16:42:58.135Z,1.87
2018-06-17T16:45:26.441Z,2.70
2018-06-17T16:47:54.486Z,1.33
2018-06-17T16:50:22.683Z,1.37
2018-06-17T16:52:56.365Z,3.77
2018-06-17T16:55:30.135Z,4.93
2018-06-17T16:58:03.777Z,3.63
2018-06-17T17:00:32.177Z,2.53
2018-06-17T17:03:00.356Z,2.23
2018-06-17T17:05:28.536Z,6.60
2018-06-17T17:07:56.797Z,3.13
2018-06-17T17:10:24.993Z,2.40
2018-06-17T17:12:52.975Z,12.90
2018-06-17T17:15:21.140Z,3.90
2018-06-17T17:17:49.280Z,24.20
2018-06-17T17:20:17.647Z,8.37
2018-06-17T17:22:46.462Z,4.50
2018-06-17T17:25:14.960Z,5.07
2018-06-17T17:27:43.206Z,2.90
2018-06-17T17:30:11.523Z,7.07
2018-06-17T17:32:45.284Z,4.33
2018-06-17T17:35:19.003Z,4.43
2018-06-17T17:37:52.785Z,4.50
2018-06-17T17:40:26.283Z,3.43
2018-06-17T17:42:54.527Z,5.53
2018-06-17T17:45:24.204Z,5.73
2018-06-17T17:47:52.688Z,4.73
2018-06-17T17:50:21.014Z,4.63
2018-06-17T17:52:49.167Z,3.57
2018-06-17T17:55:17.497Z,1.67
2018-06-17T17:57:45.713Z,2.93
2018-06-17T18:00:14.165Z,2.60
2018-06-17T18:02:42.335Z,3.10
2018-06-17T18:05:10.553Z,9.00
2018-06-17T18:07:38.802Z,4.17
2018-06-17T18:10:07.031Z,4.03
2018-06-17T18:12:35.369Z,2.23
2018-06-17T18:15:03.691Z,3.30
2018-06-17T18:17:32.010Z,1.70
2018-06-17T18:20:00.335Z,3.00
2018-06-17T18:22:28.666Z,3.00
2018-06-17T18:25:02.295Z,2.30
2018-06-17T18:28:36.959Z,7.10
2018-06-17T18:31:05.593Z,5.53
2018-06-17T18:33:39.323Z,2.93
2018-06-17T18:36:10.844Z,2.30
2018-06-17T18:38:41.525Z,4.30
2018-06-17T18:41:10.543Z,4.67
2018-06-17T18:43:38.979Z,2.17
2018-06-17T18:46:07.456Z,3.77
2018-06-17T18:48:35.986Z,5.67
2018-06-17T18:51:04.303Z,4.90
2018-06-17T18:53:35.346Z,8.30
2018-06-17T18:56:03.715Z,3.20
2018-06-17T18:58:31.896Z,5.37
2018-06-17T19:01:00.881Z,3.60
2018-06-17T19:03:29.081Z,7.50
2018-06-17T19:05:57.339Z,8.50
2018-06-17T19:08:31.229Z,3.50
2018-06-17T19:11:05.573Z,6.77
2018-06-17T19:13:39.684Z,3.20
2018-06-17T19:16:15.676Z,4.33
2018-06-17T19:18:43.861Z,2.00
2018-06-17T19:21:12.091Z,6.63
2018-06-17T19:23:40.316Z,9.43
2018-06-17T19:26:08.688Z,7.43
2018-06-17T19:28:37.014Z,6.73
2018-06-17T19:31:05.674Z,3.43
2018-06-17T19:33:34.172Z,1.33
2018-06-17T19:36:02.457Z,5.03
2018-06-17T19:38:31.775Z,2.40
2018-06-17T19:41:00.147Z,2.83
2018-06-17T19:43:28.421Z,4.97
2018-06-17T19:45:56.776Z,5.33
2018-06-17T19:48:25.044Z,5.93
2018-06-17T19:50:58.800Z,3.43
2018-06-17T19:53:32.859Z,3.40
2018-06-17T19:57:09.489Z,3.93
2018-06-17T19:59:43.982Z,3.97
2018-06-17T20:02:13.228Z,3.93
2018-06-17T20:04:41.486Z,4.30
2018-06-17T20:07:09.740Z,6.30
2018-06-17T20:09:37.990Z,5.53
2018-06-17T20:12:06.184Z,6.43
2018-06-17T20:14:36.986Z,4.73
2018-06-17T20:17:06.101Z,10.47
2018-06-17T20:19:34.460Z,6.03
2018-06-17T20:22:02.942Z,6.33
2018-06-17T20:24:31.424Z,3.37
2018-06-17T20:26:59.955Z,6.80
2018-06-17T20:29:28.217Z,5.83
2018-06-17T20:32:02.551Z,9.93
2018-06-17T20:34:36.303Z,4.50
2018-06-17T20:37:09.942Z,6.10
2018-06-17T20:39:43.754Z,6.73
2018-06-17T20:42:17.328Z,5.00
2018-06-17T20:44:45.568Z,4.27
2018-06-17T20:47:15.326Z,5.00
2018-06-17T20:49:43.609Z,3.47
2018-06-17T20:52:11.980Z,3.60
2018-06-17T20:54:40.162Z,5.60
2018-06-17T20:57:08.361Z,4.40
2018-06-17T20:59:36.548Z,3.20
2018-06-17T21:02:05.252Z,5.73
2018-06-17T21:04:33.445Z,5.90
2018-06-17T21:07:01.746Z,8.73
2018-06-17T21:09:29.905Z,5.70
2018-06-17T21:11:58.099Z,2.63
2018-06-17T21:14:26.219Z,3.70
2018-06-17T21:16:54.385Z,5.40
2018-06-17T21:19:27.947Z,4.80
2018-06-17T21:22:02.333Z,5.47
2018-06-17T21:24:35.930Z,3.30
2018-06-17T21:27:09.713Z,3.10
2018-06-17T21:29:38.020Z,4.80
2018-06-17T21:32:06.298Z,5.77
2018-06-17T21:34:34.452Z,5.00
2018-06-17T21:37:02.728Z,3.63
2018-06-17T21:39:30.770Z,4.20
2018-06-17T21:41:59.005Z,8.20
2018-06-17T21:44:27.198Z,3.70
2018-06-17T21:46:55.454Z,5.17
2018-06-17T21:49:24.035Z,7.30
2018-06-17T21:51:52.176Z,5.53
2018-06-17T21:54:20.321Z,6.30
2018-06-17T21:56:48.465Z,3.83
2018-06-17T21:59:16.672Z,4.63
2018-06-17T22:01:44.821Z,4.30
2018-06-17T22:04:18.264Z,12.10
2018-06-17T22:06:46.448Z,8.67
2018-06-17T22:09:20.347Z,5.97
2018-06-17T22:11:54.000Z,6.80
2018-06-17T22:14:27.465Z,6.00
2018-06-17T22:17:01.125Z,4.03
2018-06-17T22:19:29.253Z,4.60
2018-06-17T22:21:57.400Z,8.23
2018-06-17T22:24:25.614Z,6.13
2018-06-17T22:26:53.842Z,3.97
2018-06-17T22:29:22.043Z,4.20
2018-06-17T22:31:50.229Z,6.70
2018-06-17T22:34:18.479Z,7.43
2018-06-17T22:36:46.747Z,6.87
2018-06-17T22:39:14.995Z,4.00
2018-06-17T22:41:43.099Z,3.53
2018-06-17T22:44:11.250Z,6.10
2018-06-17T22:46:40.150Z,3.50
2018-06-17T22:49:08.335Z,5.20
2018-06-17T22:51:36.521Z,7.40
2018-06-17T22:54:16.450Z,3.70
2018-06-17T22:56:49.994Z,3.47
2018-06-17T22:59:23.692Z,5.97
2018-06-17T23:01:57.176Z,5.60
2018-06-17T23:04:30.618Z,3.40
2018-06-17T23:07:04.171Z,5.33
2018-06-17T23:09:32.675Z,3.60
2018-06-17T23:12:01.225Z,3.33
2018-06-17T23:14:29.520Z,4.77
2018-06-17T23:16:57.473Z,8.03
2018-06-17T23:19:25.591Z,5.67
2018-06-17T23:21:53.880Z,4.87
2018-06-17T23:24:21.995Z,8.23
2018-06-17T23:26:50.157Z,5.80
2018-06-17T23:29:18.332Z,4.33
2018-06-17T23:31:46.522Z,5.40
2018-06-17T23:34:14.641Z,6.10
2018-06-17T23:36:42.760Z,3.67
2018-06-17T23:39:11.896Z,6.43
2018-06-17T23:41:40.234Z,4.37
2018-06-17T23:44:09.371Z,8.20
2018-06-17T23:46:43.022Z,6.40
2018-06-17T23:49:16.815Z,4.07
2018-06-17T23:51:50.312Z,3.93
2018-06-17T23:54:24.064Z,4.07
2018-06-17T23:56:52.246Z,4.53
2018-06-17T23:59:20.444Z,5.17
